BAW84 CYVR-EGLL
Flight info
| Callsign | BAW84 |
|---|---|
| Flight time | N/A |
| Altitude | 33000 |
| Route | YVR4/26R DCT JANEK DCT VIDRI DCT YZU J527 YMM/N0492F350 DCT 62N100W 6430N09000W 6530N08000W 6530N07000W DCT KENKI/M084F350 DCT CLAVY DCT 63N050W/M084F370 62N040W 60N030W 58N020W DCT PIKIL/N0477F370 DCT SOVED DCT LUTOV DCT KELLY L10 WAL UY53 NUGRA NUGRA1H |
| Aircraft | B77W/H-SDE1E2E3FGHIJ2J3J4J5M1RWXY/LB1D1 |
Departure
| Time | 2026-05-03 20:15 |
|---|---|
| Airport | Vancouver International Airport (CYVR) |
Arrival
| Time | N/A |
|---|---|
| Airport | London Heathrow Airport (EGLL) |
| Time | Latitude | Longitude | Altitude | Speed | Heading |
|---|---|---|---|---|---|
| 2026-05-03 20:15 | 49.21353 | -123.28061 | 2106 ft | 228 kts | 279° |
| 2026-05-03 20:15 | 49.21609 | -123.30562 | 2512 ft | 245 kts | 280° |
| 2026-05-03 20:15 | 49.21896 | -123.33180 | 3124 ft | 255 kts | 280° |
| 2026-05-03 20:15 | 49.22193 | -123.35912 | 3759 ft | 265 kts | 279° |
| 2026-05-03 20:16 | 49.22751 | -123.38600 | 4315 ft | 271 kts | 302° |
| 2026-05-03 20:16 | 49.24072 | -123.40616 | 5131 ft | 270 kts | 330° |
| 2026-05-03 20:16 | 49.25853 | -123.41483 | 5893 ft | 271 kts | 356° |
| 2026-05-03 20:16 | 49.27748 | -123.41444 | 6579 ft | 273 kts | 9° |
| 2026-05-03 20:17 | 49.29486 | -123.40302 | 7194 ft | 276 kts | 43° |
| 2026-05-03 20:17 | 49.30625 | -123.37975 | 7886 ft | 275 kts | 58° |
| 2026-05-03 20:17 | 49.31619 | -123.35467 | 8614 ft | 277 kts | 58° |
| 2026-05-03 20:17 | 49.32635 | -123.32920 | 9303 ft | 281 kts | 58° |
| 2026-05-03 20:18 | 49.33663 | -123.30377 | 10121 ft | 281 kts | 57° |
| 2026-05-03 20:18 | 49.34720 | -123.27794 | 10605 ft | 294 kts | 57° |
| 2026-05-03 20:18 | 49.35864 | -123.25031 | 10775 ft | 319 kts | 57° |
| 2026-05-03 20:18 | 49.37106 | -123.22054 | 10966 ft | 344 kts | 57° |
| 2026-05-03 20:19 | 49.38444 | -123.18870 | 11244 ft | 364 kts | 56° |
| 2026-05-03 20:19 | 49.39837 | -123.15565 | 11947 ft | 373 kts | 56° |
| 2026-05-03 20:19 | 49.41259 | -123.12202 | 12819 ft | 378 kts | 56° |
| 2026-05-03 20:19 | 49.42706 | -123.08778 | 13660 ft | 386 kts | 56° |
| 2026-05-03 20:20 | 49.44178 | -123.05297 | 14485 ft | 391 kts | 56° |
| 2026-05-03 20:20 | 49.45665 | -123.01776 | 15334 ft | 395 kts | 56° |
| 2026-05-03 20:20 | 49.47165 | -122.98219 | 16184 ft | 398 kts | 56° |
| 2026-05-03 20:20 | 49.48681 | -122.94620 | 16981 ft | 404 kts | 56° |
| 2026-05-03 20:21 | 49.50216 | -122.90974 | 17756 ft | 409 kts | 56° |
| 2026-05-03 20:21 | 49.51768 | -122.87283 | 18521 ft | 413 kts | 56° |
| 2026-05-03 20:21 | 49.53336 | -122.83548 | 19212 ft | 417 kts | 56° |
| 2026-05-03 20:21 | 49.54913 | -122.79781 | 19917 ft | 420 kts | 56° |
| 2026-05-03 20:22 | 49.56502 | -122.75982 | 20687 ft | 424 kts | 56° |
| 2026-05-03 20:22 | 49.58101 | -122.72154 | 21434 ft | 426 kts | 56° |
| 2026-05-03 20:22 | 49.59708 | -122.68303 | 22187 ft | 428 kts | 56° |
| 2026-05-03 20:22 | 49.61326 | -122.64420 | 22859 ft | 433 kts | 56° |
| 2026-05-03 20:23 | 49.62959 | -122.60495 | 23490 ft | 437 kts | 56° |
| 2026-05-03 20:23 | 49.64605 | -122.56533 | 24068 ft | 440 kts | 56° |
| 2026-05-03 20:23 | 49.66260 | -122.52543 | 24661 ft | 443 kts | 56° |
| 2026-05-03 20:23 | 49.67995 | -122.48606 | 25218 ft | 444 kts | 52° |
| 2026-05-03 20:24 | 49.69962 | -122.44926 | 25753 ft | 445 kts | 47° |
| 2026-05-03 20:24 | 49.71985 | -122.41363 | 26282 ft | 449 kts | 47° |
| 2026-05-03 20:24 | 49.74056 | -122.37733 | 26787 ft | 452 kts | 47° |
| 2026-05-03 20:24 | 49.76139 | -122.34068 | 27244 ft | 456 kts | 47° |
| 2026-05-03 20:25 | 49.78240 | -122.30353 | 27666 ft | 461 kts | 47° |
| 2026-05-03 20:25 | 49.80348 | -122.26604 | 28212 ft | 462 kts | 47° |
| 2026-05-03 20:25 | 49.82454 | -122.22835 | 28720 ft | 463 kts | 47° |
| 2026-05-03 20:25 | 49.84567 | -122.19051 | 29181 ft | 466 kts | 48° |
| 2026-05-03 20:26 | 49.86690 | -122.15241 | 29592 ft | 469 kts | 47° |
| 2026-05-03 20:26 | 49.88825 | -122.11402 | 29966 ft | 471 kts | 47° |
| 2026-05-03 20:26 | 49.90969 | -122.07541 | 30363 ft | 472 kts | 47° |
| 2026-05-03 20:26 | 49.93097 | -122.03700 | 30928 ft | 467 kts | 47° |
| 2026-05-03 20:27 | 49.95176 | -121.99939 | 31637 ft | 459 kts | 46° |
| 2026-05-03 20:27 | 49.97195 | -121.96283 | 32338 ft | 451 kts | 46° |
| 2026-05-03 20:27 | 49.99226 | -121.92600 | 32914 ft | 447 kts | 46° |
| 2026-05-03 20:28 | 50.03283 | -121.85248 | 33051 ft | 448 kts | 46° |
| 2026-05-03 20:28 | 50.07339 | -121.77873 | 33073 ft | 449 kts | 46° |
| 2026-05-03 20:29 | 50.11401 | -121.70459 | 33020 ft | 449 kts | 45° |
| 2026-05-03 20:29 | 50.15433 | -121.63073 | 33025 ft | 446 kts | 45° |
| 2026-05-03 20:30 | 50.19444 | -121.55712 | 33019 ft | 445 kts | 45° |
| 2026-05-03 20:30 | 50.23596 | -121.48594 | 33025 ft | 442 kts | 39° |
| 2026-05-03 20:31 | 50.28285 | -121.42454 | 33040 ft | 437 kts | 36° |
| 2026-05-03 20:31 | 50.33036 | -121.36376 | 33031 ft | 445 kts | 36° |
| 2026-05-03 20:32 | 50.37852 | -121.30168 | 33033 ft | 451 kts | 36° |
| 2026-05-03 20:32 | 50.42693 | -121.23876 | 33025 ft | 452 kts | 36° |
| 2026-05-03 20:33 | 50.47518 | -121.17572 | 33032 ft | 450 kts | 36° |
| 2026-05-03 20:33 | 50.52319 | -121.11286 | 33041 ft | 449 kts | 36° |
| 2026-05-03 20:34 | 50.57104 | -121.05007 | 33038 ft | 448 kts | 36° |
| 2026-05-03 20:34 | 50.61817 | -120.98806 | 33021 ft | 447 kts | 36° |
| 2026-05-03 20:35 | 50.65784 | -120.93574 | 33018 ft | 447 kts | 36° |
| 2026-05-03 20:35 | 50.70543 | -120.87280 | 33049 ft | 447 kts | 36° |